Goltry, Oklahoma
Current Conditions -  °F | °C
As of 9:58 PM on Wednesday 22 Oct 2014 (Local Time) from KEND Reporting Station
Overcast Overcast  
Wind Chill: 62°   Ceiling: 11000
Heat Index: 62°   Visibility: 10mi
Dew Point: 59°   Wind: 9mph
Humidity: 89%   Direction: 200°SSW
Pressure: 30.11"   Gusts: NA
Location:  36.53°N, 98.15°W
Report Text: KEND 230258Z AUTO 20008KT 10SM OVC110 17/15 A3011 RMK AO2 SLP192 P2400 64928 T01690151 52015 $
Loading
Personal Weather Stations






























Interactive Weather Map
Tropical Storm Tracking
New forecast layout! Learn more

10-Day Weather Forecast

Advertisements
Track Severe Weather on mobile